Time;durP1;ratioP1;P1;durP2;ratioP2;P2;SDS_P1;SDS_P2;PMS_P1;PMS_P2;Temp;Humidity;BMP_temperature;BMP_pressure;BME280_temperature;BME280_humidity;BME280_pressure;Samples;Min_cycle;Max_cycle;Signal;HPM_P1;HPM_P2
2023/03/16 00:00:18;;;;;;;5.20;2.58;;;;;;;3.66;69.46;101719.56;5067935;28;20511;-76
2023/03/16 00:02:45;;;;;;;3.72;2.40;;;;;;;3.68;69.77;101718.72;5067611;28;20044;-77
2023/03/16 00:05:13;;;;;;;5.53;2.33;;;;;;;3.71;69.50;101723.94;5064663;28;20041;-75
2023/03/16 00:07:41;;;;;;;5.90;2.40;;;;;;;3.73;69.36;101721.38;5064785;28;20132;-75
2023/03/16 00:10:12;;;;;;;5.32;2.53;;;;;;;3.75;69.12;101719.66;5062915;28;20132;-75
2023/03/16 00:12:42;;;;;;;5.00;2.30;;;;;;;3.75;69.60;101717.06;5064007;28;20044;-75
2023/03/16 00:15:11;;;;;;;5.82;2.28;;;;;;;3.75;69.75;101710.94;5067515;28;20136;-76
2023/03/16 00:17:38;;;;;;;4.53;2.83;;;;;;;3.76;69.94;101710.09;5066656;28;20045;-75
2023/03/16 00:20:06;;;;;;;6.60;2.42;;;;;;;3.76;69.81;101708.38;5063760;28;20248;-75
2023/03/16 00:22:33;;;;;;;4.60;2.70;;;;;;;3.78;70.05;101705.78;5064067;28;20041;-75
2023/03/16 00:25:00;;;;;;;4.22;2.28;;;;;;;3.79;70.12;101711.00;5064148;28;20119;-75
2023/03/16 00:27:28;;;;;;;4.45;2.30;;;;;;;3.81;69.89;101713.66;5056116;28;20048;-76
2023/03/16 00:29:55;;;;;;;5.85;2.40;;;;;;;3.82;70.13;101720.59;5066402;28;20049;-77
2023/03/16 00:32:32;;;;;;;5.53;2.30;;;;;;;3.80;69.95;101715.38;5066738;28;20037;-77
2023/03/16 00:35:01;;;;;;;5.03;2.50;;;;;;;3.83;70.19;101722.34;5065873;28;20134;-77
2023/03/16 00:37:31;;;;;;;6.25;2.80;;;;;;;3.83;70.28;101722.34;5064158;28;20085;-78
2023/03/16 00:39:59;;;;;;;4.63;2.50;;;;;;;3.85;70.25;101707.59;5065520;28;20550;-78
2023/03/16 00:42:30;;;;;;;8.23;2.60;;;;;;;3.86;70.47;101701.53;5066019;28;20041;-79
2023/03/16 00:45:00;;;;;;;4.07;2.38;;;;;;;3.85;70.57;101700.66;5064205;28;20124;-78
2023/03/16 00:47:31;;;;;;;3.90;2.50;;;;;;;3.83;70.62;101694.53;5067549;28;20166;-79
2023/03/16 00:50:00;;;;;;;4.78;2.60;;;;;;;3.84;70.75;101695.41;5060333;28;20091;-79
2023/03/16 00:52:28;;;;;;;6.80;2.72;;;;;;;3.81;70.67;101693.66;5062584;28;20044;-78
2023/03/16 00:54:57;;;;;;;4.15;2.55;;;;;;;3.80;70.72;101683.22;5066548;28;20068;-79
2023/03/16 00:57:26;;;;;;;4.72;2.70;;;;;;;3.79;70.56;101681.44;5067029;28;20037;-75
2023/03/16 00:59:54;;;;;;;6.25;2.70;;;;;;;3.78;70.68;101677.94;5065044;28;20124;-75
2023/03/16 01:02:23;;;;;;;6.68;2.90;;;;;;;3.77;70.69;101681.41;5064337;28;20080;-75
2023/03/16 01:04:53;;;;;;;4.97;2.60;;;;;;;3.77;70.33;101676.19;5063428;28;20152;-75
2023/03/16 01:07:21;;;;;;;4.00;2.50;;;;;;;3.77;70.51;101678.81;5065769;28;20505;-75
2023/03/16 01:09:48;;;;;;;3.30;2.33;;;;;;;3.76;70.63;101673.59;5060979;28;20052;-75
2023/03/16 01:12:18;;;;;;;5.32;2.60;;;;;;;3.78;70.50;101674.47;5059792;28;20033;-75
2023/03/16 01:14:46;;;;;;;6.05;2.80;;;;;;;3.77;70.54;101665.75;5065052;28;20037;-75
2023/03/16 01:17:16;;;;;;;3.45;2.22;;;;;;;3.78;70.48;101662.28;5066876;28;20045;-75
2023/03/16 01:19:44;;;;;;;4.25;2.60;;;;;;;3.80;70.46;101654.50;5058273;28;20120;-75
2023/03/16 01:22:13;;;;;;;5.03;2.50;;;;;;;3.82;70.50;101658.88;5071717;28;20127;-76
2023/03/16 01:24:44;;;;;;;3.70;2.70;;;;;;;3.85;70.36;101645.00;5065906;28;20075;-76
2023/03/16 01:27:11;;;;;;;4.78;2.55;;;;;;;3.87;70.12;101651.09;5066670;28;20041;-77
2023/03/16 01:29:42;;;;;;;5.30;2.50;;;;;;;3.87;70.06;101640.66;5063999;28;20156;-77
2023/03/16 01:32:11;;;;;;;4.80;2.60;;;;;;;3.87;70.12;101638.06;5075397;28;20041;-77
2023/03/16 01:34:38;;;;;;;5.00;2.70;;;;;;;3.86;70.18;101628.47;5064693;28;20053;-77
2023/03/16 01:37:05;;;;;;;6.18;2.55;;;;;;;3.87;70.04;101632.84;5062969;28;20057;-77
2023/03/16 01:39:50;;;;;;;4.80;2.60;;;;;;;3.85;70.20;101632.84;5050579;28;20048;-76
2023/03/16 01:42:17;;;;;;;4.32;2.50;;;;;;;3.85;70.18;101630.22;5060642;28;20305;-76
2023/03/16 01:44:53;;;;;;;4.75;2.80;;;;;;;3.85;70.16;101629.34;5058494;28;20045;-77
2023/03/16 01:47:22;;;;;;;5.45;3.30;;;;;;;3.83;70.11;101628.44;5064131;28;20484;-76
2023/03/16 01:49:55;;;;;;;5.03;2.67;;;;;;;3.81;70.15;101615.38;5058709;28;20132;-76
2023/03/16 01:52:32;;;;;;;7.30;2.88;;;;;;;3.82;70.28;101619.75;5056142;28;20052;-75
2023/03/16 01:55:12;;;;;;;5.28;3.10;;;;;;;3.80;70.43;101620.59;5057380;28;20045;-75
2023/03/16 01:57:45;;;;;;;7.05;3.03;;;;;;;3.78;70.60;101622.31;5064699;28;20076;-76
2023/03/16 02:00:18;;;;;;;3.90;2.63;;;;;;;3.77;70.54;101618.81;5063936;28;20057;-77
2023/03/16 02:03:08;;;;;;;4.93;2.80;;;;;;;3.77;70.68;101613.59;5062750;28;20096;-76
2023/03/16 02:06:14;;;;;;;4.13;2.78;;;;;;;3.73;70.50;101610.09;5059778;28;20114;-76
2023/03/16 02:08:48;;;;;;;5.05;2.83;;;;;;;3.71;70.63;101603.97;5063725;28;20052;-76
2023/03/16 02:11:21;;;;;;;4.63;2.90;;;;;;;3.69;70.80;101608.31;5063642;28;20048;-76
2023/03/16 02:14:09;;;;;;;6.07;3.13;;;;;;;3.70;70.92;101597.03;5062767;28;20040;-77
2023/03/16 02:16:39;;;;;;;6.45;2.78;;;;;;;3.69;70.99;101599.59;5065444;28;20041;-77
2023/03/16 02:19:25;;;;;;;5.47;2.72;;;;;;;3.67;71.06;101597.00;5062272;28;20079;-76
2023/03/16 02:22:06;;;;;;;5.05;2.60;;;;;;;3.67;71.01;101591.78;5061919;28;20642;-73
2023/03/16 02:24:36;;;;;;;4.47;3.08;;;;;;;3.65;71.06;101590.03;5063702;28;20041;-73
2023/03/16 02:27:11;;;;;;;4.82;2.95;;;;;;;3.62;71.14;101587.38;5064239;28;20410;-78
2023/03/16 02:30:06;;;;;;;5.30;2.97;;;;;;;3.58;70.92;101581.25;5062237;28;20120;-75
2023/03/16 02:32:44;;;;;;;4.75;3.03;;;;;;;3.58;71.27;101579.50;5057221;28;20160;-75
2023/03/16 02:35:13;;;;;;;8.23;3.22;;;;;;;3.59;71.51;101583.00;5063191;28;20056;-74
2023/03/16 02:37:41;;;;;;;6.45;3.13;;;;;;;3.60;71.43;101583.88;5062251;28;20107;-75
2023/03/16 02:40:28;;;;;;;5.72;2.67;;;;;;;3.62;71.24;101582.16;5063368;28;20051;-75
2023/03/16 02:43:21;;;;;;;3.95;3.00;;;;;;;3.61;71.39;101562.16;5055716;28;20060;-77
2023/03/16 02:46:03;;;;;;;3.95;2.72;;;;;;;3.63;71.42;101568.25;5054902;28;20100;-77
2023/03/16 02:48:50;;;;;;;4.70;2.67;;;;;;;3.63;71.68;101569.13;5080737;28;20056;-78
2023/03/16 02:51:19;;;;;;;4.95;2.88;;;;;;;3.63;71.67;101563.03;5068758;28;20049;-77
2023/03/16 02:53:46;;;;;;;4.93;3.30;;;;;;;3.64;71.53;101559.59;5067527;28;20041;-77
2023/03/16 02:56:13;;;;;;;5.22;2.90;;;;;;;3.65;71.71;101564.81;5066221;28;20398;-77
2023/03/16 02:58:40;;;;;;;4.75;2.75;;;;;;;3.67;71.57;101564.81;5068251;28;20045;-77
2023/03/16 03:01:13;;;;;;;5.10;2.60;;;;;;;3.66;71.63;101552.66;5064342;28;20557;-77
2023/03/16 03:03:40;;;;;;;5.45;2.85;;;;;;;3.67;71.72;101547.44;5066445;28;20045;-76
2023/03/16 03:06:07;;;;;;;7.07;2.90;;;;;;;3.68;71.72;101554.41;5068665;28;20099;-77
2023/03/16 03:08:36;;;;;;;3.75;2.78;;;;;;;3.67;71.79;101555.28;5062355;28;20631;-77
2023/03/16 03:11:03;;;;;;;5.13;2.90;;;;;;;3.72;71.90;101563.13;5067437;28;20052;-77
2023/03/16 03:13:30;;;;;;;7.18;2.80;;;;;;;3.71;72.17;101557.03;5067198;28;20049;-78
2023/03/16 03:15:58;;;;;;;4.53;2.88;;;;;;;3.73;72.05;101563.13;5067274;28;20562;-79
2023/03/16 03:18:27;;;;;;;5.00;2.70;;;;;;;3.75;72.32;101559.69;5067070;28;20045;-79
2023/03/16 03:20:54;;;;;;;3.88;2.50;;;;;;;3.77;72.46;101555.34;5066407;28;20053;-78
2023/03/16 03:23:21;;;;;;;3.28;2.60;;;;;;;3.76;72.33;101556.22;5066577;28;20532;-79
2023/03/16 03:25:48;;;;;;;4.97;2.72;;;;;;;3.75;72.60;101557.06;5067024;28;20437;-79
2023/03/16 03:28:16;;;;;;;3.35;2.70;;;;;;;3.73;72.71;101557.91;5065765;28;20037;-79
2023/03/16 03:30:44;;;;;;;5.15;2.60;;;;;;;3.73;73.04;101562.28;5061910;28;20247;-79
2023/03/16 03:33:11;;;;;;;5.25;2.70;;;;;;;3.70;73.13;101555.31;5066000;28;20119;-79
2023/03/16 03:35:40;;;;;;;4.88;3.10;;;;;;;3.68;73.54;101554.41;5067704;28;20102;-78
2023/03/16 03:38:08;;;;;;;4.70;2.70;;;;;;;3.66;73.61;101550.91;5065735;28;20928;-78
2023/03/16 03:40:35;;;;;;;4.07;2.60;;;;;;;3.64;73.98;101555.22;5067228;28;20126;-78
2023/03/16 03:43:05;;;;;;;4.30;2.88;;;;;;;3.63;74.26;101553.47;5081119;28;20045;-78
2023/03/16 03:45:36;;;;;;;5.75;3.30;;;;;;;3.61;74.16;101543.91;5060022;28;20880;-78
2023/03/16 03:48:04;;;;;;;5.07;2.78;;;;;;;3.62;74.57;101553.47;5066033;28;20547;-78
2023/03/16 03:50:32;;;;;;;4.50;2.80;;;;;;;3.62;74.62;101543.03;5066888;28;20846;-78
2023/03/16 03:53:28;;;;;;;4.90;2.80;;;;;;;3.58;74.86;101540.41;5062969;28;20053;-76
2023/03/16 03:56:22;;;;;;;3.05;2.70;;;;;;;3.57;75.11;101535.19;5067064;28;20068;-76
2023/03/16 03:58:49;;;;;;;9.07;2.85;;;;;;;3.55;75.39;101534.28;5065608;28;20076;-77
2023/03/16 04:01:31;;;;;;;6.28;3.00;;;;;;;3.53;75.63;101541.22;5066920;28;20142;-77
2023/03/16 04:03:58;;;;;;;4.05;3.00;;;;;;;3.51;75.76;101528.16;5066533;28;20044;-77
2023/03/16 04:06:26;;;;;;;4.93;2.95;;;;;;;3.49;75.85;101524.66;5053020;28;20774;-77
2023/03/16 04:08:54;;;;;;;4.55;3.00;;;;;;;3.47;75.88;101521.16;5067895;28;20472;-77
2023/03/16 04:11:25;;;;;;;6.38;2.80;;;;;;;3.47;75.73;101528.13;5066083;28;20131;-75
2023/03/16 04:13:53;;;;;;;6.40;2.90;;;;;;;3.45;75.64;101515.09;5061733;28;20095;-77
2023/03/16 04:16:20;;;;;;;8.88;3.28;;;;;;;3.46;75.69;101518.56;5066381;28;20045;-76
2023/03/16 04:18:55;;;;;;;4.32;2.70;;;;;;;3.45;75.83;101516.78;5067379;28;20874;-75
2023/03/16 04:21:23;;;;;;;4.50;2.65;;;;;;;3.45;75.73;101511.59;5082056;28;20501;-74
2023/03/16 04:23:53;;;;;;;4.32;2.60;;;;;;;3.45;75.71;101524.63;5074286;28;20053;-75
2023/03/16 04:26:28;;;;;;;3.70;2.70;;;;;;;3.45;75.83;101520.28;5081709;28;20480;-75
2023/03/16 04:28:57;;;;;;;4.65;2.78;;;;;;;3.46;75.61;101526.38;5083015;28;20153;-75
2023/03/16 04:31:24;;;;;;;4.93;2.70;;;;;;;3.46;75.65;101535.06;5061570;28;20517;-76
2023/03/16 04:33:54;;;;;;;4.75;2.50;;;;;;;3.46;75.36;101518.56;5061696;28;20473;-76
2023/03/16 04:36:23;;;;;;;5.03;2.65;;;;;;;3.48;75.59;101522.06;5064608;28;20510;-76
2023/03/16 04:38:50;;;;;;;5.13;2.50;;;;;;;3.47;75.63;101515.09;5063528;28;20099;-75
2023/03/16 04:41:18;;;;;;;4.53;2.78;;;;;;;3.47;75.91;101507.25;5064147;28;20094;-76
2023/03/16 04:43:59;;;;;;;4.25;2.70;;;;;;;3.50;75.66;101515.13;5065203;28;20492;-75
2023/03/16 04:46:28;;;;;;;5.13;3.00;;;;;;;3.50;75.72;101513.38;5081021;28;20042;-76
2023/03/16 04:48:57;;;;;;;4.20;2.70;;;;;;;3.50;75.66;101508.16;5078206;28;20417;-76
2023/03/16 04:51:27;;;;;;;4.50;2.70;;;;;;;3.50;75.75;101508.16;5061801;28;20244;-76
2023/03/16 04:54:17;;;;;;;5.20;2.63;;;;;;;3.52;75.82;101508.16;5060499;28;20052;-76
2023/03/16 04:56:44;;;;;;;7.03;2.60;;;;;;;3.53;75.84;101502.09;5065068;28;20254;-76
2023/03/16 04:59:44;;;;;;;4.45;2.67;;;;;;;3.53;76.00;101500.38;5046867;28;20045;-76
2023/03/16 05:02:31;;;;;;;3.88;2.70;;;;;;;3.54;75.96;101504.75;5052306;28;20607;-76
2023/03/16 05:05:00;;;;;;;5.10;2.50;;;;;;;3.56;76.19;101496.91;5080608;28;20045;-77
2023/03/16 05:07:28;;;;;;;3.75;2.47;;;;;;;3.61;76.27;101496.97;5064261;28;20049;-76
2023/03/16 05:09:56;;;;;;;4.82;2.97;;;;;;;3.61;76.09;101484.81;5060694;28;20041;-77
2023/03/16 05:12:23;;;;;;;5.68;2.60;;;;;;;3.62;76.11;101486.53;5066909;28;20075;-76
2023/03/16 05:14:55;;;;;;;5.13;2.53;;;;;;;3.62;76.09;101496.97;5064350;28;20541;-77
2023/03/16 05:17:31;;;;;;;4.50;2.65;;;;;;;3.65;76.05;101496.16;5062805;28;20051;-76
2023/03/16 05:19:58;;;;;;;4.53;2.75;;;;;;;3.65;76.06;101499.63;5063790;28;20045;-76
2023/03/16 05:22:26;;;;;;;4.60;2.45;;;;;;;3.66;76.24;101500.50;5067007;28;20051;-76
2023/03/16 05:25:19;;;;;;;3.45;2.40;;;;;;;3.67;76.01;101499.63;5058041;28;20040;-77
2023/03/16 05:27:53;;;;;;;5.28;2.45;;;;;;;3.69;76.36;101498.78;5066944;28;20077;-77
2023/03/16 05:30:27;;;;;;;63.10;6.18;;;;;;;3.70;76.26;101487.50;5081794;28;20048;-75
2023/03/16 05:32:57;;;;;;;4.93;2.50;;;;;;;3.72;76.31;101495.31;5063968;28;20076;-75
2023/03/16 05:35:26;;;;;;;5.50;2.58;;;;;;;3.72;76.13;101488.38;5063244;28;20044;-75
2023/03/16 05:37:58;;;;;;;4.47;2.40;;;;;;;3.73;76.04;101487.50;5063191;28;20057;-76
2023/03/16 05:40:27;;;;;;;6.90;2.60;;;;;;;3.73;76.25;101490.13;5064751;28;20939;-76
2023/03/16 05:43:05;;;;;;;7.35;2.60;;;;;;;3.75;76.20;101492.75;5064201;28;20049;-76
2023/03/16 05:45:37;;;;;;;5.35;2.45;;;;;;;3.77;76.24;101487.53;5062517;28;20037;-76
2023/03/16 05:48:10;;;;;;;5.10;2.70;;;;;;;3.78;76.24;101479.72;5061178;28;20052;-80
2023/03/16 05:50:43;;;;;;;13.32;2.95;;;;;;;3.81;76.52;101487.56;5065513;28;20134;-80
2023/03/16 05:53:12;;;;;;;7.10;3.28;;;;;;;3.86;76.91;101488.50;5062968;28;20049;-79
2023/03/16 05:55:40;;;;;;;4.80;2.67;;;;;;;3.98;76.91;101484.22;5064632;28;20049;-78
2023/03/16 05:58:10;;;;;;;5.05;2.38;;;;;;;4.15;77.69;101489.56;5061527;28;20049;-79
2023/03/16 06:00:40;;;;;;;5.97;2.45;;;;;;;4.35;78.22;101490.56;5061405;28;20049;-78
2023/03/16 06:03:18;;;;;;;5.53;2.53;;;;;;;4.65;76.43;101488.97;5064259;28;20051;-78
2023/03/16 06:05:46;;;;;;;3.25;2.35;;;;;;;4.73;74.92;101483.78;5062903;28;21343;-79
2023/03/16 06:08:15;;;;;;;4.45;2.30;;;;;;;4.84;74.70;101480.34;5063894;28;20052;-78
2023/03/16 06:10:47;;;;;;;8.48;2.55;;;;;;;4.92;73.93;101474.28;5063126;28;20045;-78
2023/03/16 06:13:16;;;;;;;3.05;2.17;;;;;;;4.96;73.57;101470.78;5063822;28;20044;-78
2023/03/16 06:15:43;;;;;;;3.70;2.40;;;;;;;5.03;73.26;101470.84;5062313;28;20126;-76
2023/03/16 06:18:12;;;;;;;7.15;2.20;;;;;;;4.94;73.32;101467.31;5062058;28;20094;-76
2023/03/16 06:20:39;;;;;;;10.20;2.88;;;;;;;4.85;73.10;101475.13;5065291;28;20044;-75
2023/03/16 06:23:06;;;;;;;4.15;2.45;;;;;;;4.76;73.40;101465.53;5059206;28;20045;-75
2023/03/16 06:25:33;;;;;;;5.63;2.25;;;;;;;4.70;73.66;101470.69;5047228;28;20056;-75
2023/03/16 06:28:03;;;;;;;4.45;2.85;;;;;;;4.66;73.65;101469.81;5078912;28;20535;-77
2023/03/16 06:30:30;;;;;;;11.55;3.15;;;;;;;4.63;73.83;101475.03;5065665;28;20041;-76
2023/03/16 06:32:58;;;;;;;3.85;2.50;;;;;;;4.63;73.93;101476.78;5066778;28;20041;-76
2023/03/16 06:35:26;;;;;;;8.43;2.78;;;;;;;4.60;74.19;101468.91;5066691;28;20053;-76
2023/03/16 06:38:06;;;;;;;7.85;2.75;;;;;;;4.58;74.08;101468.91;5066823;28;20061;-76
2023/03/16 06:40:54;;;;;;;5.05;2.53;;;;;;;4.57;74.39;101485.44;5066795;28;20041;-77
2023/03/16 06:43:22;;;;;;;7.07;2.80;;;;;;;4.57;74.61;101482.84;5056966;28;20493;-77
2023/03/16 06:45:50;;;;;;;6.00;3.63;;;;;;;4.57;74.66;101481.97;5057994;28;20053;-76
2023/03/16 06:48:18;;;;;;;5.18;3.28;;;;;;;4.59;74.82;101486.34;5051394;28;20128;-81
2023/03/16 06:50:46;;;;;;;9.07;4.18;;;;;;;4.63;74.87;101487.22;5063295;28;20584;-78
2023/03/16 06:53:18;;;;;;;10.38;4.85;;;;;;;4.66;75.02;101485.50;5083848;28;20513;-77
2023/03/16 06:55:45;;;;;;;9.75;5.38;;;;;;;4.71;74.83;101484.66;5067466;28;20173;-77
2023/03/16 06:58:13;;;;;;;8.43;5.07;;;;;;;4.73;75.33;101480.31;5066250;28;20587;-77
2023/03/16 07:00:40;;;;;;;10.20;5.15;;;;;;;4.73;75.39;101488.16;5063632;28;20192;-75
2023/03/16 07:03:08;;;;;;;13.18;5.60;;;;;;;4.72;75.43;101489.00;5066542;28;20762;-76
2023/03/16 07:05:37;;;;;;;12.32;6.03;;;;;;;4.71;75.83;101485.50;5063691;28;20126;-77
2023/03/16 07:08:04;;;;;;;10.52;6.35;;;;;;;4.70;75.87;101483.75;5065140;28;20049;-77
2023/03/16 07:10:32;;;;;;;11.20;6.70;;;;;;;4.70;75.98;101486.38;5067417;28;20111;-78
2023/03/16 07:12:59;;;;;;;13.73;7.05;;;;;;;4.68;76.31;101489.84;5065242;28;20033;-76
2023/03/16 07:15:26;;;;;;;13.90;6.78;;;;;;;4.68;76.79;101490.72;5057178;28;20858;-76
2023/03/16 07:17:55;;;;;;;13.00;7.10;;;;;;;4.66;76.88;101493.31;5083187;28;20095;-76
2023/03/16 07:20:25;;;;;;;17.05;6.70;;;;;;;4.67;77.09;101489.00;5064769;28;20160;-78
2023/03/16 07:22:53;;;;;;;13.18;6.65;;;;;;;4.68;77.41;101474.19;5068784;28;20794;-78
2023/03/16 07:25:20;;;;;;;11.98;6.40;;;;;;;4.69;77.28;101489.00;5066195;28;20820;-79
2023/03/16 07:27:52;;;;;;;11.88;5.40;;;;;;;4.73;77.63;101482.94;5065478;28;20055;-76
2023/03/16 07:30:25;;;;;;;9.77;5.15;;;;;;;4.76;77.73;101478.59;5078537;28;20128;-76
2023/03/16 07:32:53;;;;;;;7.70;4.35;;;;;;;4.77;77.46;101476.81;5084852;28;20052;-75
2023/03/16 07:35:23;;;;;;;5.65;3.92;;;;;;;4.77;77.38;101474.22;5067788;28;20044;-77
2023/03/16 07:37:50;;;;;;;6.72;3.75;;;;;;;4.79;77.35;101475.09;5066668;28;20053;-76
2023/03/16 07:40:18;;;;;;;9.43;4.57;;;;;;;4.82;77.34;101475.13;5057272;28;20049;-77
2023/03/16 07:42:45;;;;;;;6.03;4.00;;;;;;;4.85;77.51;101466.41;5068006;28;20091;-76
2023/03/16 07:45:16;;;;;;;6.40;3.97;;;;;;;4.91;77.43;101479.50;5066631;28;20063;-76
2023/03/16 07:47:44;;;;;;;10.90;6.60;;;;;;;4.97;77.27;101485.63;5067925;28;20041;-76
2023/03/16 07:50:23;;;;;;;9.60;4.47;;;;;;;5.05;77.50;101482.13;5071836;28;20587;-75
2023/03/16 07:52:51;;;;;;;9.07;5.80;;;;;;;5.10;77.15;101480.44;5067716;28;20049;-75
2023/03/16 07:55:18;;;;;;;6.97;3.90;;;;;;;5.17;76.76;101478.72;5065674;28;20049;-76
2023/03/16 07:57:47;;;;;;;8.13;4.55;;;;;;;5.19;76.54;101477.84;5066211;28;20079;-76
2023/03/16 08:00:22;;;;;;;9.60;6.00;;;;;;;5.22;76.75;101487.41;5065166;28;20820;-76
2023/03/16 08:02:50;;;;;;;8.40;5.15;;;;;;;5.22;76.50;101483.06;5084264;28;20052;-76
2023/03/16 08:05:17;;;;;;;9.00;4.10;;;;;;;5.23;76.31;101479.59;5068791;28;20049;-75
2023/03/16 08:07:50;;;;;;;12.15;6.95;;;;;;;5.24;76.41;101486.53;5067077;28;20052;-76
2023/03/16 08:10:22;;;;;;;11.65;6.43;;;;;;;5.26;76.26;101479.59;5066968;28;20049;-76
2023/03/16 08:13:13;;;;;;;12.07;6.45;;;;;;;5.30;76.59;101472.63;5066622;28;20066;-76
2023/03/16 08:16:00;;;;;;;8.25;4.07;;;;;;;5.32;76.75;101467.41;5056973;28;20849;-75
2023/03/16 08:18:34;;;;;;;7.57;4.28;;;;;;;5.34;76.75;101471.75;5042899;28;20045;-75
2023/03/16 08:21:02;;;;;;;8.52;5.47;;;;;;;5.35;76.98;101470.00;5067414;28;20045;-75
2023/03/16 08:23:32;;;;;;;17.23;8.68;;;;;;;5.35;76.83;101465.66;5067422;28;20463;-75
2023/03/16 08:26:00;;;;;;;8.93;5.10;;;;;;;5.38;76.93;101475.25;5069265;28;20532;-75
2023/03/16 08:28:27;;;;;;;9.65;4.53;;;;;;;5.39;77.10;101459.56;5066742;28;20052;-75
2023/03/16 08:30:57;;;;;;;9.63;4.43;;;;;;;5.47;77.06;101458.72;5067121;28;20045;-75
2023/03/16 08:33:46;;;;;;;4.53;3.72;;;;;;;5.58;77.68;101463.06;5067956;28;20143;-75
2023/03/16 08:36:17;;;;;;;11.38;6.43;;;;;;;5.68;77.68;101450.88;5066210;28;20064;-74
2023/03/16 08:38:50;;;;;;;5.60;3.60;;;;;;;5.83;77.51;101459.56;5066230;28;20095;-75
2023/03/16 08:41:39;;;;;;;6.07;4.10;;;;;;;5.90;77.16;101448.25;5065129;28;20041;-75
2023/03/16 08:44:11;;;;;;;6.27;4.40;;;;;;;6.01;77.44;101461.34;5067016;28;20045;-75
2023/03/16 08:46:39;;;;;;;7.32;4.57;;;;;;;6.18;77.25;101454.31;5067185;28;20741;-75
2023/03/16 08:49:07;;;;;;;8.60;4.22;;;;;;;6.39;76.47;101449.03;5082277;28;20898;-75
2023/03/16 08:51:35;;;;;;;5.28;3.60;;;;;;;6.61;75.74;101439.34;5066195;28;20069;-75
2023/03/16 08:54:03;;;;;;;9.88;4.13;;;;;;;6.79;75.12;101439.25;5066601;28;20051;-75
2023/03/16 08:56:31;;;;;;;6.25;3.80;;;;;;;6.92;74.71;101428.72;5059012;28;20056;-75
2023/03/16 08:58:58;;;;;;;9.40;4.85;;;;;;;6.96;73.73;101415.56;5048856;28;20047;-75
2023/03/16 09:01:26;;;;;;;7.75;4.32;;;;;;;6.95;73.75;101426.94;5064901;28;20044;-75
2023/03/16 09:03:53;;;;;;;7.60;4.47;;;;;;;6.94;73.47;101425.19;5069240;28;20045;-75
2023/03/16 09:06:21;;;;;;;12.55;5.20;;;;;;;6.94;73.52;101429.56;5059742;28;20762;-75
2023/03/16 09:08:48;;;;;;;7.95;4.38;;;;;;;6.98;73.83;101431.28;5066554;28;20567;-75
2023/03/16 09:11:18;;;;;;;7.22;4.60;;;;;;;7.08;73.46;101435.59;5067479;28;20068;-75
2023/03/16 09:13:46;;;;;;;7.20;4.60;;;;;;;7.20;73.32;101429.41;5065667;28;20146;-75
2023/03/16 09:16:15;;;;;;;9.60;5.50;;;;;;;7.35;72.74;101430.16;5067210;28;20041;-75
2023/03/16 09:18:42;;;;;;;8.57;5.15;;;;;;;7.44;72.11;101422.22;5076843;28;20533;-75
2023/03/16 09:21:13;;;;;;;8.43;4.50;;;;;;;7.51;72.29;101418.69;5079631;28;20124;-75
2023/03/16 09:23:44;;;;;;;7.35;4.78;;;;;;;7.58;71.69;101416.91;5066881;28;20049;-76
2023/03/16 09:26:14;;;;;;;7.03;3.97;;;;;;;7.60;71.18;101413.38;5066410;28;20045;-75
2023/03/16 09:28:41;;;;;;;6.45;4.05;;;;;;;7.62;71.73;101413.34;5055153;28;20049;-75
2023/03/16 09:31:17;;;;;;;13.02;4.38;;;;;;;7.67;71.84;101415.91;5066433;28;20061;-75
2023/03/16 09:33:45;;;;;;;9.73;4.05;;;;;;;7.67;70.75;101416.81;5066312;28;20556;-75
2023/03/16 09:36:13;;;;;;;5.13;3.42;;;;;;;7.63;70.89;101409.84;5066537;28;20893;-75
2023/03/16 09:38:42;;;;;;;7.32;4.00;;;;;;;7.65;70.44;101412.44;5067314;28;20123;-75
2023/03/16 09:41:47;;;;;;;4.43;3.28;;;;;;;7.68;70.23;101404.53;5050731;28;20057;-74
2023/03/16 09:44:50;;;;;;;8.82;3.20;;;;;;;7.71;70.38;101407.16;5046934;28;20072;-76
2023/03/16 09:47:27;;;;;;;5.82;3.40;;;;;;;7.82;69.63;101407.91;5060776;28;20045;-75
2023/03/16 09:49:59;;;;;;;8.13;3.22;;;;;;;7.89;69.64;101408.69;5065572;28;20458;-75
2023/03/16 09:52:49;;;;;;;6.22;3.65;;;;;;;8.03;69.88;101419.09;5063991;28;20114;-76
2023/03/16 09:55:29;;;;;;;5.95;3.67;;;;;;;8.19;69.86;101411.91;5082213;28;20802;-75
2023/03/16 09:58:00;;;;;;;7.50;3.80;;;;;;;8.43;69.49;101399.34;5065616;28;20140;-75
2023/03/16 10:00:42;;;;;;;9.05;4.28;;;;;;;8.65;68.79;101403.50;5065911;28;20060;-76
2023/03/16 10:03:25;;;;;;;11.70;3.85;;;;;;;8.83;67.87;101398.88;5065978;28;20040;-75
2023/03/16 10:06:03;;;;;;;6.25;3.53;;;;;;;8.99;67.96;101400.41;5064903;28;20049;-75
2023/03/16 10:08:44;;;;;;;10.05;3.30;;;;;;;9.11;66.98;101404.59;5075812;28;20135;-75
2023/03/16 10:11:31;;;;;;;5.95;3.00;;;;;;;9.19;66.80;101398.34;5065941;28;20037;-75
2023/03/16 10:14:24;;;;;;;4.63;3.30;;;;;;;9.26;66.20;101387.69;5060996;28;20104;-76
2023/03/16 10:17:02;;;;;;;8.70;3.17;;;;;;;9.36;65.45;101385.78;5054948;28;20045;-74
2023/03/16 10:19:44;;;;;;;4.85;2.75;;;;;;;9.45;65.45;101375.13;5053103;28;20131;-75
2023/03/16 10:22:21;;;;;;;5.55;3.40;;;;;;;9.58;64.76;101367.00;5065375;28;20076;-76
2023/03/16 10:25:21;;;;;;;6.30;3.03;;;;;;;9.64;64.54;101365.13;5066322;28;20037;-75
2023/03/16 10:27:49;;;;;;;7.47;2.97;;;;;;;9.73;64.12;101365.84;5061012;28;20462;-75
2023/03/16 10:30:24;;;;;;;4.55;2.97;;;;;;;9.81;63.58;101370.97;5066316;28;20764;-75
2023/03/16 10:32:52;;;;;;;7.78;3.13;;;;;;;9.88;63.49;101369.94;5066049;28;20037;-75
2023/03/16 10:35:54;;;;;;;7.85;2.75;;;;;;;10.01;62.34;101357.44;5067444;28;20045;-76
2023/03/16 10:38:45;;;;;;;8.57;2.97;;;;;;;10.10;61.98;101344.06;5066211;28;20051;-75
2023/03/16 10:41:28;;;;;;;4.85;2.22;;;;;;;10.22;62.42;101356.13;5065485;28;20406;-75
2023/03/16 10:44:20;;;;;;;5.50;2.30;;;;;;;10.35;61.34;101349.72;5066211;28;20494;-75
2023/03/16 10:46:57;;;;;;;3.88;2.30;;;;;;;10.49;60.45;101346.81;5065399;28;20049;-75
2023/03/16 10:49:41;;;;;;;3.72;1.80;;;;;;;10.64;59.70;101349.97;5063014;28;20591;-75
2023/03/16 10:52:22;;;;;;;7.65;2.20;;;;;;;10.83;59.63;101348.69;5048203;28;20041;-76
2023/03/16 10:54:55;;;;;;;4.43;2.05;;;;;;;11.02;59.66;101357.00;5064839;28;20052;-76
2023/03/16 10:57:32;;;;;;;5.25;2.08;;;;;;;11.21;58.77;101345.16;5062714;28;20049;-76
2023/03/16 11:00:19;;;;;;;6.63;1.70;;;;;;;11.30;56.58;101342.28;5061820;28;20106;-76
2023/03/16 11:02:49;;;;;;;4.38;1.67;;;;;;;11.29;57.32;101330.00;5066580;28;20048;-76
2023/03/16 11:05:16;;;;;;;9.30;2.25;;;;;;;11.31;58.03;101333.47;5066941;28;20128;-75
2023/03/16 11:07:49;;;;;;;5.88;1.85;;;;;;;11.54;58.74;101332.00;5063951;28;20048;-75
2023/03/16 11:10:53;;;;;;;4.00;1.85;;;;;;;11.93;57.96;101337.09;5064141;28;20152;-76
2023/03/16 11:13:44;;;;;;;;;;;;;;;12.21;55.97;101331.91;5068251;28;20091;-76
2023/03/16 11:16:40;;;;;;;13.77;2.90;;;;;;;12.46;54.55;101333.81;5058057;28;19925;-76
2023/03/16 11:19:30;;;;;;;3.78;1.45;;;;;;;12.55;55.80;101328.25;5059050;28;20083;-76
2023/03/16 11:22:13;;;;;;;3.72;1.70;;;;;;;12.65;55.75;101320.91;5068071;28;20049;-77
2023/03/16 11:25:01;;;;;;;4.75;1.80;;;;;;;12.70;55.70;101311.03;5065818;28;20561;-75
2023/03/16 11:27:40;;;;;;;3.17;1.75;;;;;;;12.68;54.63;101312.84;5066327;28;20041;-76
2023/03/16 11:30:32;;;;;;;7.18;1.67;;;;;;;12.63;53.93;101300.69;5061134;28;20045;-76
2023/03/16 11:33:00;;;;;;;4.95;1.58;;;;;;;12.61;52.79;101284.03;5062092;28;20095;-76
2023/03/16 11:36:07;;;;;;;10.43;1.70;;;;;;;12.55;52.40;101285.09;5067349;28;20120;-76
2023/03/16 11:38:58;;;;;;;2.65;1.50;;;;;;;12.48;52.79;101276.47;5050368;28;20052;-76
2023/03/16 11:41:57;;;;;;;6.65;1.70;;;;;;;12.41;52.77;101294.31;5064137;28;20044;-75
2023/03/16 11:44:54;;;;;;;8.90;1.90;;;;;;;12.39;53.19;101277.63;5064738;28;20129;-75
2023/03/16 11:48:02;;;;;;;3.95;1.67;;;;;;;12.35;52.36;101276.00;5066157;28;20048;-75
2023/03/16 11:51:08;;;;;;;8.60;1.90;;;;;;;12.29;53.12;101278.81;5061899;28;20158;-75
2023/03/16 11:54:15;;;;;;;3.00;1.60;;;;;;;12.31;53.94;101271.72;5068329;28;20528;-76
2023/03/16 11:56:51;;;;;;;6.35;1.60;;;;;;;12.35;54.40;101261.91;5059510;28;20041;-75
2023/03/16 11:59:55;;;;;;;7.65;1.63;;;;;;;12.39;52.04;101267.03;5067441;28;20037;-75
2023/03/16 12:03:29;;;;;;;4.07;1.90;;;;;;;12.37;52.69;101252.16;5061149;28;20045;-75